sensor_id;sensor_type;location;lat;lon;timestamp;temperature;humidity
11838;DHT22;5978;51.020;6.764;2023-03-20T00:01:45;10.80;99.90
11838;DHT22;5978;51.020;6.764;2023-03-20T00:04:11;10.60;99.90
11838;DHT22;5978;51.020;6.764;2023-03-20T00:06:37;10.60;99.90
11838;DHT22;5978;51.020;6.764;2023-03-20T00:09:02;10.60;99.90
11838;DHT22;5978;51.020;6.764;2023-03-20T00:11:35;10.60;99.90
11838;DHT22;5978;51.020;6.764;2023-03-20T00:14:09;10.60;99.90
11838;DHT22;5978;51.020;6.764;2023-03-20T00:16:40;10.60;99.90
11838;DHT22;5978;51.020;6.764;2023-03-20T00:21:38;10.60;99.90
11838;DHT22;5978;51.020;6.764;2023-03-20T00:24:05;10.60;99.90
11838;DHT22;5978;51.020;6.764;2023-03-20T00:26:33;10.50;99.90
11838;DHT22;5978;51.020;6.764;2023-03-20T00:29:00;10.50;99.90
11838;DHT22;5978;51.020;6.764;2023-03-20T00:31:34;10.50;99.90
11838;DHT22;5978;51.020;6.764;2023-03-20T00:34:03;10.40;99.90
11838;DHT22;5978;51.020;6.764;2023-03-20T00:36:30;10.40;99.90
11838;DHT22;5978;51.020;6.764;2023-03-20T00:38:55;10.30;99.90
11838;DHT22;5978;51.020;6.764;2023-03-20T00:41:50;10.30;99.90
11838;DHT22;5978;51.020;6.764;2023-03-20T00:44:29;10.20;99.90
11838;DHT22;5978;51.020;6.764;2023-03-20T00:46:59;10.20;99.90
11838;DHT22;5978;51.020;6.764;2023-03-20T00:49:27;10.20;99.90
11838;DHT22;5978;51.020;6.764;2023-03-20T00:51:54;10.20;99.90
11838;DHT22;5978;51.020;6.764;2023-03-20T00:54:20;10.20;99.90
11838;DHT22;5978;51.020;6.764;2023-03-20T00:59:23;10.20;99.90
11838;DHT22;5978;51.020;6.764;2023-03-20T01:01:50;10.10;99.90
11838;DHT22;5978;51.020;6.764;2023-03-20T01:04:17;10.20;99.90
11838;DHT22;5978;51.020;6.764;2023-03-20T01:06:44;10.20;99.90
11838;DHT22;5978;51.020;6.764;2023-03-20T01:09:09;10.20;99.90
11838;DHT22;5978;51.020;6.764;2023-03-20T01:11:36;10.20;99.90
11838;DHT22;5978;51.020;6.764;2023-03-20T01:14:03;10.10;99.90
11838;DHT22;5978;51.020;6.764;2023-03-20T01:16:29;10.10;99.90
11838;DHT22;5978;51.020;6.764;2023-03-20T01:18:54;10.00;99.90
11838;DHT22;5978;51.020;6.764;2023-03-20T01:21:21;10.00;99.90
11838;DHT22;5978;51.020;6.764;2023-03-20T01:23:47;10.00;99.90
11838;DHT22;5978;51.020;6.764;2023-03-20T01:26:30;10.00;99.90
11838;DHT22;5978;51.020;6.764;2023-03-20T01:28:58;9.90;99.90
11838;DHT22;5978;51.020;6.764;2023-03-20T01:31:23;9.90;99.90
11838;DHT22;5978;51.020;6.764;2023-03-20T01:33:49;9.90;99.90
11838;DHT22;5978;51.020;6.764;2023-03-20T01:36:18;9.90;99.90
11838;DHT22;5978;51.020;6.764;2023-03-20T01:38:44;9.90;99.90
11838;DHT22;5978;51.020;6.764;2023-03-20T01:41:14;9.90;99.90
11838;DHT22;5978;51.020;6.764;2023-03-20T01:43:41;9.90;99.90
11838;DHT22;5978;51.020;6.764;2023-03-20T01:51:17;9.80;99.90
11838;DHT22;5978;51.020;6.764;2023-03-20T01:53:44;9.70;99.90
11838;DHT22;5978;51.020;6.764;2023-03-20T01:56:12;9.70;99.90
11838;DHT22;5978;51.020;6.764;2023-03-20T01:58:43;9.70;99.90
11838;DHT22;5978;51.020;6.764;2023-03-20T02:01:12;9.70;99.90
11838;DHT22;5978;51.020;6.764;2023-03-20T02:03:39;9.70;99.90
11838;DHT22;5978;51.020;6.764;2023-03-20T02:06:08;9.70;99.90
11838;DHT22;5978;51.020;6.764;2023-03-20T02:08:39;9.70;99.90
11838;DHT22;5978;51.020;6.764;2023-03-20T02:11:06;9.70;99.90
11838;DHT22;5978;51.020;6.764;2023-03-20T02:13:32;9.70;99.90
11838;DHT22;5978;51.020;6.764;2023-03-20T02:16:04;9.60;99.90
11838;DHT22;5978;51.020;6.764;2023-03-20T02:18:32;9.70;99.90
11838;DHT22;5978;51.020;6.764;2023-03-20T02:41:41;9.50;99.90
11838;DHT22;5978;51.020;6.764;2023-03-20T02:44:16;9.50;99.90
11838;DHT22;5978;51.020;6.764;2023-03-20T02:47:06;9.60;99.90
11838;DHT22;5978;51.020;6.764;2023-03-20T02:57:29;9.50;99.90
11838;DHT22;5978;51.020;6.764;2023-03-20T03:02:47;9.60;99.90
11838;DHT22;5978;51.020;6.764;2023-03-20T03:06:19;9.60;99.90
11838;DHT22;5978;51.020;6.764;2023-03-20T03:08:28;9.60;99.90
11838;DHT22;5978;51.020;6.764;2023-03-20T03:11:05;9.60;99.90
11838;DHT22;5978;51.020;6.764;2023-03-20T03:13:35;9.60;99.90
11838;DHT22;5978;51.020;6.764;2023-03-20T03:16:09;9.60;99.90
11838;DHT22;5978;51.020;6.764;2023-03-20T03:18:37;9.70;99.90
11838;DHT22;5978;51.020;6.764;2023-03-20T03:21:06;9.60;99.90
11838;DHT22;5978;51.020;6.764;2023-03-20T03:23:39;9.70;99.90
11838;DHT22;5978;51.020;6.764;2023-03-20T03:26:06;9.70;99.90
11838;DHT22;5978;51.020;6.764;2023-03-20T03:28:41;9.70;99.90
11838;DHT22;5978;51.020;6.764;2023-03-20T03:31:11;9.60;99.90
11838;DHT22;5978;51.020;6.764;2023-03-20T03:33:40;9.60;99.90
11838;DHT22;5978;51.020;6.764;2023-03-20T03:36:12;9.40;99.90
11838;DHT22;5978;51.020;6.764;2023-03-20T03:39:16;9.40;99.90
11838;DHT22;5978;51.020;6.764;2023-03-20T03:41:52;9.40;99.90
11838;DHT22;5978;51.020;6.764;2023-03-20T03:44:59;9.30;99.90
11838;DHT22;5978;51.020;6.764;2023-03-20T03:47:37;9.40;99.90
11838;DHT22;5978;51.020;6.764;2023-03-20T03:50:09;9.40;99.90
11838;DHT22;5978;51.020;6.764;2023-03-20T03:52:37;9.40;99.90
11838;DHT22;5978;51.020;6.764;2023-03-20T03:55:20;9.40;99.90
11838;DHT22;5978;51.020;6.764;2023-03-20T03:57:56;9.40;99.90
11838;DHT22;5978;51.020;6.764;2023-03-20T04:00:23;9.40;99.90
11838;DHT22;5978;51.020;6.764;2023-03-20T04:02:53;9.20;99.90
11838;DHT22;5978;51.020;6.764;2023-03-20T04:05:19;9.20;99.90
11838;DHT22;5978;51.020;6.764;2023-03-20T04:07:47;9.10;99.90
11838;DHT22;5978;51.020;6.764;2023-03-20T04:10:13;9.00;99.90
11838;DHT22;5978;51.020;6.764;2023-03-20T04:12:41;8.90;99.90
11838;DHT22;5978;51.020;6.764;2023-03-20T04:15:07;8.80;99.90
11838;DHT22;5978;51.020;6.764;2023-03-20T04:17:33;8.70;99.90
11838;DHT22;5978;51.020;6.764;2023-03-20T04:19:59;8.60;99.90
11838;DHT22;5978;51.020;6.764;2023-03-20T04:22:25;8.60;99.90
11838;DHT22;5978;51.020;6.764;2023-03-20T04:24:50;8.60;99.90
11838;DHT22;5978;51.020;6.764;2023-03-20T04:27:17;8.50;99.90
11838;DHT22;5978;51.020;6.764;2023-03-20T04:29:42;8.50;99.90
11838;DHT22;5978;51.020;6.764;2023-03-20T04:32:08;8.50;99.90
11838;DHT22;5978;51.020;6.764;2023-03-20T04:34:34;8.40;99.90
11838;DHT22;5978;51.020;6.764;2023-03-20T04:37:00;8.30;99.90
11838;DHT22;5978;51.020;6.764;2023-03-20T04:39:26;8.30;99.90
11838;DHT22;5978;51.020;6.764;2023-03-20T04:41:52;8.30;99.90
11838;DHT22;5978;51.020;6.764;2023-03-20T04:44:17;8.30;99.90
11838;DHT22;5978;51.020;6.764;2023-03-20T04:46:43;8.20;99.90
11838;DHT22;5978;51.020;6.764;2023-03-20T04:49:08;8.20;99.90
11838;DHT22;5978;51.020;6.764;2023-03-20T04:51:34;8.20;99.90
11838;DHT22;5978;51.020;6.764;2023-03-20T04:54:00;8.20;99.90
11838;DHT22;5978;51.020;6.764;2023-03-20T04:56:25;8.20;99.90
11838;DHT22;5978;51.020;6.764;2023-03-20T04:58:51;8.20;99.90
11838;DHT22;5978;51.020;6.764;2023-03-20T05:01:17;8.20;99.90
11838;DHT22;5978;51.020;6.764;2023-03-20T05:03:42;8.10;99.90
11838;DHT22;5978;51.020;6.764;2023-03-20T05:06:08;8.10;99.90
11838;DHT22;5978;51.020;6.764;2023-03-20T05:08:34;8.10;99.90
11838;DHT22;5978;51.020;6.764;2023-03-20T05:10:59;8.10;99.90
11838;DHT22;5978;51.020;6.764;2023-03-20T05:13:25;8.10;99.90
11838;DHT22;5978;51.020;6.764;2023-03-20T05:15:50;8.10;99.90
11838;DHT22;5978;51.020;6.764;2023-03-20T05:18:16;8.00;99.90
11838;DHT22;5978;51.020;6.764;2023-03-20T05:20:41;8.00;99.90
11838;DHT22;5978;51.020;6.764;2023-03-20T05:23:07;8.00;99.90
11838;DHT22;5978;51.020;6.764;2023-03-20T05:25:33;8.00;99.90
11838;DHT22;5978;51.020;6.764;2023-03-20T05:27:58;8.00;99.90
11838;DHT22;5978;51.020;6.764;2023-03-20T05:30:24;8.00;99.90
11838;DHT22;5978;51.020;6.764;2023-03-20T05:32:50;8.00;99.90
11838;DHT22;5978;51.020;6.764;2023-03-20T05:35:17;8.10;99.90
11838;DHT22;5978;51.020;6.764;2023-03-20T05:37:42;8.10;99.90
11838;DHT22;5978;51.020;6.764;2023-03-20T05:40:11;8.20;99.90
11838;DHT22;5978;51.020;6.764;2023-03-20T05:42:37;8.10;99.90
11838;DHT22;5978;51.020;6.764;2023-03-20T05:45:03;8.10;99.90
11838;DHT22;5978;51.020;6.764;2023-03-20T05:47:29;8.20;99.90
11838;DHT22;5978;51.020;6.764;2023-03-20T05:49:55;8.10;99.90
11838;DHT22;5978;51.020;6.764;2023-03-20T05:52:20;8.10;99.90
11838;DHT22;5978;51.020;6.764;2023-03-20T05:54:46;8.20;99.90
11838;DHT22;5978;51.020;6.764;2023-03-20T05:57:12;8.10;99.90
11838;DHT22;5978;51.020;6.764;2023-03-20T05:59:37;8.10;99.90
11838;DHT22;5978;51.020;6.764;2023-03-20T06:02:03;8.10;99.90
11838;DHT22;5978;51.020;6.764;2023-03-20T06:04:28;8.10;99.90
11838;DHT22;5978;51.020;6.764;2023-03-20T06:06:54;8.10;99.90
11838;DHT22;5978;51.020;6.764;2023-03-20T06:09:20;8.20;99.90
11838;DHT22;5978;51.020;6.764;2023-03-20T06:11:46;8.20;99.90
11838;DHT22;5978;51.020;6.764;2023-03-20T06:14:11;8.20;99.90
11838;DHT22;5978;51.020;6.764;2023-03-20T06:16:37;8.20;99.90
11838;DHT22;5978;51.020;6.764;2023-03-20T06:19:02;8.10;99.90
11838;DHT22;5978;51.020;6.764;2023-03-20T06:21:28;8.10;99.90
11838;DHT22;5978;51.020;6.764;2023-03-20T06:23:53;8.20;99.90
11838;DHT22;5978;51.020;6.764;2023-03-20T06:26:19;8.30;99.90
11838;DHT22;5978;51.020;6.764;2023-03-20T06:28:45;8.30;99.90
11838;DHT22;5978;51.020;6.764;2023-03-20T06:31:11;8.40;99.90
11838;DHT22;5978;51.020;6.764;2023-03-20T06:33:36;8.40;99.90
11838;DHT22;5978;51.020;6.764;2023-03-20T06:36:03;8.40;99.90
11838;DHT22;5978;51.020;6.764;2023-03-20T06:38:29;8.30;99.90
11838;DHT22;5978;51.020;6.764;2023-03-20T06:40:54;8.40;99.90
11838;DHT22;5978;51.020;6.764;2023-03-20T06:43:20;8.40;99.90
11838;DHT22;5978;51.020;6.764;2023-03-20T06:45:46;8.40;99.90
11838;DHT22;5978;51.020;6.764;2023-03-20T06:48:12;8.50;99.90
11838;DHT22;5978;51.020;6.764;2023-03-20T06:50:38;8.50;99.90
11838;DHT22;5978;51.020;6.764;2023-03-20T06:53:03;8.50;99.90
11838;DHT22;5978;51.020;6.764;2023-03-20T06:55:29;8.50;99.90
11838;DHT22;5978;51.020;6.764;2023-03-20T06:57:55;8.50;99.90
11838;DHT22;5978;51.020;6.764;2023-03-20T07:00:21;8.60;99.90
11838;DHT22;5978;51.020;6.764;2023-03-20T07:02:47;8.70;99.90
11838;DHT22;5978;51.020;6.764;2023-03-20T07:05:14;8.70;99.90
11838;DHT22;5978;51.020;6.764;2023-03-20T07:07:39;8.70;99.90
11838;DHT22;5978;51.020;6.764;2023-03-20T07:10:05;8.80;99.90
11838;DHT22;5978;51.020;6.764;2023-03-20T07:12:31;8.90;99.90
11838;DHT22;5978;51.020;6.764;2023-03-20T07:14:57;8.90;99.90
11838;DHT22;5978;51.020;6.764;2023-03-20T07:17:22;9.00;99.90
11838;DHT22;5978;51.020;6.764;2023-03-20T07:19:48;9.00;99.90
11838;DHT22;5978;51.020;6.764;2023-03-20T07:22:22;9.10;99.90
11838;DHT22;5978;51.020;6.764;2023-03-20T07:24:48;9.10;99.90
11838;DHT22;5978;51.020;6.764;2023-03-20T07:27:14;9.00;99.90
11838;DHT22;5978;51.020;6.764;2023-03-20T07:29:40;9.00;99.90
11838;DHT22;5978;51.020;6.764;2023-03-20T07:32:05;9.00;99.90
11838;DHT22;5978;51.020;6.764;2023-03-20T07:34:31;9.10;99.90
11838;DHT22;5978;51.020;6.764;2023-03-20T07:36:56;9.10;99.90
11838;DHT22;5978;51.020;6.764;2023-03-20T07:39:22;9.00;99.90
11838;DHT22;5978;51.020;6.764;2023-03-20T07:41:48;9.00;99.90
11838;DHT22;5978;51.020;6.764;2023-03-20T07:44:13;9.00;99.90
11838;DHT22;5978;51.020;6.764;2023-03-20T07:46:39;9.00;99.90
11838;DHT22;5978;51.020;6.764;2023-03-20T07:49:05;9.10;99.90
11838;DHT22;5978;51.020;6.764;2023-03-20T07:51:31;9.10;99.90
11838;DHT22;5978;51.020;6.764;2023-03-20T07:53:57;9.10;99.90
11838;DHT22;5978;51.020;6.764;2023-03-20T07:56:23;9.20;99.90
11838;DHT22;5978;51.020;6.764;2023-03-20T07:58:48;9.20;99.90
11838;DHT22;5978;51.020;6.764;2023-03-20T08:01:14;9.20;99.90
11838;DHT22;5978;51.020;6.764;2023-03-20T08:03:40;9.30;99.90
11838;DHT22;5978;51.020;6.764;2023-03-20T08:06:06;9.40;99.90
11838;DHT22;5978;51.020;6.764;2023-03-20T08:08:34;9.50;99.90
11838;DHT22;5978;51.020;6.764;2023-03-20T08:11:00;9.60;99.90
11838;DHT22;5978;51.020;6.764;2023-03-20T08:13:26;9.50;99.90
11838;DHT22;5978;51.020;6.764;2023-03-20T08:15:51;9.60;99.90
11838;DHT22;5978;51.020;6.764;2023-03-20T08:18:17;9.70;99.90
11838;DHT22;5978;51.020;6.764;2023-03-20T08:20:44;9.70;99.90
11838;DHT22;5978;51.020;6.764;2023-03-20T08:23:10;9.70;99.90
11838;DHT22;5978;51.020;6.764;2023-03-20T08:25:36;9.80;99.90
11838;DHT22;5978;51.020;6.764;2023-03-20T08:28:02;10.00;99.90
11838;DHT22;5978;51.020;6.764;2023-03-20T08:30:28;10.00;99.90
11838;DHT22;5978;51.020;6.764;2023-03-20T08:32:53;9.90;99.90
11838;DHT22;5978;51.020;6.764;2023-03-20T08:35:19;10.00;99.90
11838;DHT22;5978;51.020;6.764;2023-03-20T08:37:45;10.00;99.90
11838;DHT22;5978;51.020;6.764;2023-03-20T08:40:11;10.10;99.90
11838;DHT22;5978;51.020;6.764;2023-03-20T08:42:37;10.20;99.90
11838;DHT22;5978;51.020;6.764;2023-03-20T08:45:02;10.00;99.90
11838;DHT22;5978;51.020;6.764;2023-03-20T08:47:28;10.10;99.90
11838;DHT22;5978;51.020;6.764;2023-03-20T08:49:53;10.00;99.90
11838;DHT22;5978;51.020;6.764;2023-03-20T08:52:19;9.90;99.90
11838;DHT22;5978;51.020;6.764;2023-03-20T08:54:45;10.00;99.90
11838;DHT22;5978;51.020;6.764;2023-03-20T08:57:10;10.00;99.90
11838;DHT22;5978;51.020;6.764;2023-03-20T08:59:36;10.10;99.90
11838;DHT22;5978;51.020;6.764;2023-03-20T09:02:02;10.30;99.90
11838;DHT22;5978;51.020;6.764;2023-03-20T09:04:28;10.50;99.90
11838;DHT22;5978;51.020;6.764;2023-03-20T09:06:54;10.60;99.90
11838;DHT22;5978;51.020;6.764;2023-03-20T09:09:20;10.60;99.90
11838;DHT22;5978;51.020;6.764;2023-03-20T09:11:51;10.80;99.90
11838;DHT22;5978;51.020;6.764;2023-03-20T09:14:16;10.90;99.90
11838;DHT22;5978;51.020;6.764;2023-03-20T09:16:42;10.80;99.90
11838;DHT22;5978;51.020;6.764;2023-03-20T09:19:08;10.70;99.90
11838;DHT22;5978;51.020;6.764;2023-03-20T09:21:33;10.50;99.90
11838;DHT22;5978;51.020;6.764;2023-03-20T09:23:59;10.40;99.90
11838;DHT22;5978;51.020;6.764;2023-03-20T09:26:24;10.30;99.90
11838;DHT22;5978;51.020;6.764;2023-03-20T09:28:50;10.20;99.90
11838;DHT22;5978;51.020;6.764;2023-03-20T09:31:15;10.20;99.90
11838;DHT22;5978;51.020;6.764;2023-03-20T09:33:41;10.20;99.90
11838;DHT22;5978;51.020;6.764;2023-03-20T09:36:06;10.20;99.90
11838;DHT22;5978;51.020;6.764;2023-03-20T09:38:36;10.30;99.90
11838;DHT22;5978;51.020;6.764;2023-03-20T09:41:02;10.40;99.90
11838;DHT22;5978;51.020;6.764;2023-03-20T09:49:14;10.50;99.90
11838;DHT22;5978;51.020;6.764;2023-03-20T09:51:56;10.40;99.90
11838;DHT22;5978;51.020;6.764;2023-03-20T09:54:34;10.40;99.90
11838;DHT22;5978;51.020;6.764;2023-03-20T09:57:02;10.50;99.90
11838;DHT22;5978;51.020;6.764;2023-03-20T09:59:29;10.40;99.90
11838;DHT22;5978;51.020;6.764;2023-03-20T10:02:05;10.60;99.90
11838;DHT22;5978;51.020;6.764;2023-03-20T10:04:33;10.90;99.90
11838;DHT22;5978;51.020;6.764;2023-03-20T10:07:03;10.90;99.90
11838;DHT22;5978;51.020;6.764;2023-03-20T10:09:29;10.90;99.90
11838;DHT22;5978;51.020;6.764;2023-03-20T10:12:23;11.10;99.90
11838;DHT22;5978;51.020;6.764;2023-03-20T10:15:27;11.10;99.90
11838;DHT22;5978;51.020;6.764;2023-03-20T10:20:52;11.10;99.90
11838;DHT22;5978;51.020;6.764;2023-03-20T10:31:40;10.50;99.90
11838;DHT22;5978;51.020;6.764;2023-03-20T10:37:17;10.60;99.90
11838;DHT22;5978;51.020;6.764;2023-03-20T10:42:29;10.90;99.90
11838;DHT22;5978;51.020;6.764;2023-03-20T10:45:04;11.00;99.90
11838;DHT22;5978;51.020;6.764;2023-03-20T10:47:34;11.00;99.90
11838;DHT22;5978;51.020;6.764;2023-03-20T10:50:06;11.00;99.90
11838;DHT22;5978;51.020;6.764;2023-03-20T10:52:36;11.00;99.90
11838;DHT22;5978;51.020;6.764;2023-03-20T10:57:34;10.60;99.90
11838;DHT22;5978;51.020;6.764;2023-03-20T11:00:02;10.60;99.90
11838;DHT22;5978;51.020;6.764;2023-03-20T11:02:30;10.50;99.90
11838;DHT22;5978;51.020;6.764;2023-03-20T11:04:59;10.50;99.90
11838;DHT22;5978;51.020;6.764;2023-03-20T11:07:26;10.50;99.90
11838;DHT22;5978;51.020;6.764;2023-03-20T11:10:13;10.50;99.90
11838;DHT22;5978;51.020;6.764;2023-03-20T11:12:46;10.50;99.90
11838;DHT22;5978;51.020;6.764;2023-03-20T11:15:22;10.50;99.90
11838;DHT22;5978;51.020;6.764;2023-03-20T11:17:53;10.40;99.90
11838;DHT22;5978;51.020;6.764;2023-03-20T11:20:19;10.30;99.90
11838;DHT22;5978;51.020;6.764;2023-03-20T11:22:46;10.20;99.90
11838;DHT22;5978;51.020;6.764;2023-03-20T11:25:48;10.10;99.90
11838;DHT22;5978;51.020;6.764;2023-03-20T11:28:34;10.20;99.90
11838;DHT22;5978;51.020;6.764;2023-03-20T11:33:41;10.00;99.90
11838;DHT22;5978;51.020;6.764;2023-03-20T11:36:20;9.80;99.90
11838;DHT22;5978;51.020;6.764;2023-03-20T11:38:46;9.60;99.90
11838;DHT22;5978;51.020;6.764;2023-03-20T11:41:22;9.40;99.90
11838;DHT22;5978;51.020;6.764;2023-03-20T11:43:48;9.40;99.90
11838;DHT22;5978;51.020;6.764;2023-03-20T11:46:14;9.30;99.90
11838;DHT22;5978;51.020;6.764;2023-03-20T11:48:42;9.10;99.90
11838;DHT22;5978;51.020;6.764;2023-03-20T11:51:14;9.00;99.90
11838;DHT22;5978;51.020;6.764;2023-03-20T11:56:27;8.90;99.90
11838;DHT22;5978;51.020;6.764;2023-03-20T12:01:49;9.10;99.90
11838;DHT22;5978;51.020;6.764;2023-03-20T12:04:27;9.10;99.90
11838;DHT22;5978;51.020;6.764;2023-03-20T12:09:44;9.10;99.90
11838;DHT22;5978;51.020;6.764;2023-03-20T12:12:23;9.20;99.90
11838;DHT22;5978;51.020;6.764;2023-03-20T12:17:34;9.30;99.90
11838;DHT22;5978;51.020;6.764;2023-03-20T12:22:44;9.50;99.90
11838;DHT22;5978;51.020;6.764;2023-03-20T12:28:24;9.80;99.90
11838;DHT22;5978;51.020;6.764;2023-03-20T12:36:41;10.50;99.90
11838;DHT22;5978;51.020;6.764;2023-03-20T12:39:14;10.30;99.90
11838;DHT22;5978;51.020;6.764;2023-03-20T12:46:59;10.50;99.90
11838;DHT22;5978;51.020;6.764;2023-03-20T12:49:34;10.90;99.90
11838;DHT22;5978;51.020;6.764;2023-03-20T12:52:22;11.00;99.90
11838;DHT22;5978;51.020;6.764;2023-03-20T12:55:02;11.30;99.90
11838;DHT22;5978;51.020;6.764;2023-03-20T13:00:43;11.20;99.90
11838;DHT22;5978;51.020;6.764;2023-03-20T13:03:31;10.90;99.90
11838;DHT22;5978;51.020;6.764;2023-03-20T13:06:23;11.10;99.90
11838;DHT22;5978;51.020;6.764;2023-03-20T13:09:04;11.20;99.90
11838;DHT22;5978;51.020;6.764;2023-03-20T13:14:34;10.80;99.90
11838;DHT22;5978;51.020;6.764;2023-03-20T13:17:26;10.80;99.90
11838;DHT22;5978;51.020;6.764;2023-03-20T13:25:37;11.30;99.90
11838;DHT22;5978;51.020;6.764;2023-03-20T13:34:50;11.60;99.90
11838;DHT22;5978;51.020;6.764;2023-03-20T13:37:36;11.60;99.90
11838;DHT22;5978;51.020;6.764;2023-03-20T13:40:23;11.50;99.90
11838;DHT22;5978;51.020;6.764;2023-03-20T13:45:29;11.60;99.90
11838;DHT22;5978;51.020;6.764;2023-03-20T13:47:55;11.60;99.90
11838;DHT22;5978;51.020;6.764;2023-03-20T13:50:36;11.50;99.90
11838;DHT22;5978;51.020;6.764;2023-03-20T13:53:15;11.50;99.90
11838;DHT22;5978;51.020;6.764;2023-03-20T13:55:59;11.70;99.90
11838;DHT22;5978;51.020;6.764;2023-03-20T13:58:54;11.80;99.90
11838;DHT22;5978;51.020;6.764;2023-03-20T14:01:47;11.70;99.90
11838;DHT22;5978;51.020;6.764;2023-03-20T14:04:18;11.80;99.90
11838;DHT22;5978;51.020;6.764;2023-03-20T14:06:54;11.70;99.90
11838;DHT22;5978;51.020;6.764;2023-03-20T14:09:25;11.80;99.90
11838;DHT22;5978;51.020;6.764;2023-03-20T14:11:53;12.00;99.90
11838;DHT22;5978;51.020;6.764;2023-03-20T14:14:25;12.20;99.90
11838;DHT22;5978;51.020;6.764;2023-03-20T14:17:28;12.30;99.90
11838;DHT22;5978;51.020;6.764;2023-03-20T14:19:54;12.40;99.90
11838;DHT22;5978;51.020;6.764;2023-03-20T14:22:25;12.40;99.90
11838;DHT22;5978;51.020;6.764;2023-03-20T14:24:59;12.50;99.90
11838;DHT22;5978;51.020;6.764;2023-03-20T14:27:29;12.50;99.90
11838;DHT22;5978;51.020;6.764;2023-03-20T14:30:40;12.40;99.90
11838;DHT22;5978;51.020;6.764;2023-03-20T14:33:06;12.30;99.90
11838;DHT22;5978;51.020;6.764;2023-03-20T14:35:37;12.00;99.90
11838;DHT22;5978;51.020;6.764;2023-03-20T14:41:10;11.80;99.90
11838;DHT22;5978;51.020;6.764;2023-03-20T14:46:39;11.40;99.90
11838;DHT22;5978;51.020;6.764;2023-03-20T14:49:34;11.40;99.90
11838;DHT22;5978;51.020;6.764;2023-03-20T14:54:53;11.40;99.90
11838;DHT22;5978;51.020;6.764;2023-03-20T14:57:29;11.40;99.90
11838;DHT22;5978;51.020;6.764;2023-03-20T14:59:55;11.40;99.90
11838;DHT22;5978;51.020;6.764;2023-03-20T15:02:34;11.40;99.90
11838;DHT22;5978;51.020;6.764;2023-03-20T15:05:01;11.40;99.90
11838;DHT22;5978;51.020;6.764;2023-03-20T15:07:29;11.40;99.90
11838;DHT22;5978;51.020;6.764;2023-03-20T15:09:58;11.30;99.90
11838;DHT22;5978;51.020;6.764;2023-03-20T15:12:34;11.20;99.90
11838;DHT22;5978;51.020;6.764;2023-03-20T15:15:03;11.20;99.90
11838;DHT22;5978;51.020;6.764;2023-03-20T15:17:42;11.30;99.90
11838;DHT22;5978;51.020;6.764;2023-03-20T15:20:24;11.40;99.90
11838;DHT22;5978;51.020;6.764;2023-03-20T15:22:52;11.40;99.90
11838;DHT22;5978;51.020;6.764;2023-03-20T15:25:20;11.50;99.90
11838;DHT22;5978;51.020;6.764;2023-03-20T15:27:47;11.50;99.90
11838;DHT22;5978;51.020;6.764;2023-03-20T15:30:16;11.50;99.90
11838;DHT22;5978;51.020;6.764;2023-03-20T15:32:42;11.50;99.90
11838;DHT22;5978;51.020;6.764;2023-03-20T15:35:15;11.50;99.90
11838;DHT22;5978;51.020;6.764;2023-03-20T15:37:44;11.60;99.90
11838;DHT22;5978;51.020;6.764;2023-03-20T15:45:26;11.70;99.90
11838;DHT22;5978;51.020;6.764;2023-03-20T15:48:10;11.80;99.90
11838;DHT22;5978;51.020;6.764;2023-03-20T15:50:37;11.90;99.90
11838;DHT22;5978;51.020;6.764;2023-03-20T15:53:05;11.90;99.90
11838;DHT22;5978;51.020;6.764;2023-03-20T15:55:33;11.90;99.90
11838;DHT22;5978;51.020;6.764;2023-03-20T15:58:00;12.00;99.90
11838;DHT22;5978;51.020;6.764;2023-03-20T16:00:28;11.90;99.90
11838;DHT22;5978;51.020;6.764;2023-03-20T16:02:54;11.80;99.90
11838;DHT22;5978;51.020;6.764;2023-03-20T16:05:23;11.80;99.90
11838;DHT22;5978;51.020;6.764;2023-03-20T16:07:49;11.70;99.90
11838;DHT22;5978;51.020;6.764;2023-03-20T16:10:19;11.60;99.90
11838;DHT22;5978;51.020;6.764;2023-03-20T16:12:47;11.60;99.90
11838;DHT22;5978;51.020;6.764;2023-03-20T16:15:18;11.70;99.90
11838;DHT22;5978;51.020;6.764;2023-03-20T16:17:44;11.60;99.90
11838;DHT22;5978;51.020;6.764;2023-03-20T16:20:14;11.60;99.90
11838;DHT22;5978;51.020;6.764;2023-03-20T16:22:40;11.50;99.90
11838;DHT22;5978;51.020;6.764;2023-03-20T16:25:12;11.50;99.90
11838;DHT22;5978;51.020;6.764;2023-03-20T16:27:39;11.40;99.90
11838;DHT22;5978;51.020;6.764;2023-03-20T16:30:15;11.40;99.90
11838;DHT22;5978;51.020;6.764;2023-03-20T16:32:44;11.40;99.90
11838;DHT22;5978;51.020;6.764;2023-03-20T16:35:29;11.40;99.90
11838;DHT22;5978;51.020;6.764;2023-03-20T16:37:57;11.30;99.90
11838;DHT22;5978;51.020;6.764;2023-03-20T16:40:30;11.40;99.90
11838;DHT22;5978;51.020;6.764;2023-03-20T16:43:44;11.40;99.90
11838;DHT22;5978;51.020;6.764;2023-03-20T16:45:54;11.50;99.90
11838;DHT22;5978;51.020;6.764;2023-03-20T16:48:30;11.50;99.90
11838;DHT22;5978;51.020;6.764;2023-03-20T16:51:06;11.50;99.90
11838;DHT22;5978;51.020;6.764;2023-03-20T16:53:40;11.50;99.90
11838;DHT22;5978;51.020;6.764;2023-03-20T16:56:12;11.50;99.90
11838;DHT22;5978;51.020;6.764;2023-03-20T16:58:38;11.50;99.90
11838;DHT22;5978;51.020;6.764;2023-03-20T17:01:07;11.40;99.90
11838;DHT22;5978;51.020;6.764;2023-03-20T17:03:39;11.30;99.90
11838;DHT22;5978;51.020;6.764;2023-03-20T17:08:52;11.30;99.90
11838;DHT22;5978;51.020;6.764;2023-03-20T17:13:47;11.30;99.90
11838;DHT22;5978;51.020;6.764;2023-03-20T17:16:16;11.30;99.90
11838;DHT22;5978;51.020;6.764;2023-03-20T17:18:49;11.20;99.90
11838;DHT22;5978;51.020;6.764;2023-03-20T17:21:22;11.10;99.90
11838;DHT22;5978;51.020;6.764;2023-03-20T17:23:47;11.00;99.90
11838;DHT22;5978;51.020;6.764;2023-03-20T17:26:13;11.00;99.90
11838;DHT22;5978;51.020;6.764;2023-03-20T17:28:38;10.90;99.90
11838;DHT22;5978;51.020;6.764;2023-03-20T17:31:04;10.90;99.90
11838;DHT22;5978;51.020;6.764;2023-03-20T17:33:31;10.90;99.90
11838;DHT22;5978;51.020;6.764;2023-03-20T17:35:58;10.80;99.90
11838;DHT22;5978;51.020;6.764;2023-03-20T17:38:24;10.80;99.90
11838;DHT22;5978;51.020;6.764;2023-03-20T17:40:51;10.80;99.90
11838;DHT22;5978;51.020;6.764;2023-03-20T17:43:17;10.90;99.90
11838;DHT22;5978;51.020;6.764;2023-03-20T17:45:44;10.90;99.90
11838;DHT22;5978;51.020;6.764;2023-03-20T17:48:19;11.00;99.90
11838;DHT22;5978;51.020;6.764;2023-03-20T17:50:48;10.90;99.90
11838;DHT22;5978;51.020;6.764;2023-03-20T17:53:20;10.90;99.90
11838;DHT22;5978;51.020;6.764;2023-03-20T17:55:48;10.90;99.90
11838;DHT22;5978;51.020;6.764;2023-03-20T17:58:19;10.80;99.90
11838;DHT22;5978;51.020;6.764;2023-03-20T18:00:50;10.80;99.90
11838;DHT22;5978;51.020;6.764;2023-03-20T18:03:16;10.80;99.90
11838;DHT22;5978;51.020;6.764;2023-03-20T18:05:44;10.90;99.90
11838;DHT22;5978;51.020;6.764;2023-03-20T18:08:19;10.90;99.90
11838;DHT22;5978;51.020;6.764;2023-03-20T18:10:46;10.90;99.90
11838;DHT22;5978;51.020;6.764;2023-03-20T18:13:12;10.90;99.90
11838;DHT22;5978;51.020;6.764;2023-03-20T18:15:38;10.90;99.90
11838;DHT22;5978;51.020;6.764;2023-03-20T18:18:06;10.90;99.90
11838;DHT22;5978;51.020;6.764;2023-03-20T18:20:34;10.90;99.90
11838;DHT22;5978;51.020;6.764;2023-03-20T18:23:00;10.90;99.90
11838;DHT22;5978;51.020;6.764;2023-03-20T18:25:26;10.90;99.90
11838;DHT22;5978;51.020;6.764;2023-03-20T18:27:53;11.00;99.90